Fancy Prairie, Illinois
Current Conditions -  °F | °C
As of 12:52 AM on Wednesday 22 Oct 2014 (Local Time) from KSPI Reporting Station
Clear Clear  
Wind Chill: 37°   Ceiling: Unl
Heat Index: 41°   Visibility: 10mi
Dew Point: 37°   Wind: 6mph
Humidity: 86%   Direction: 70°ENE
Pressure: 30.25"   Gusts: NA
Location:  39.9822°N, 89.6851°W
Report Text: KSPI 220552Z AUTO 07005KT 10SM CLR 05/03 A3025 RMK AO2 SLP244 T00500028 10100 20050 401720039 51005
Loading
Personal Weather Stations






























Interactive Weather Map
Tropical Storm Tracking
New forecast layout! Learn more

10-Day Weather Forecast

Advertisements
Track Severe Weather on mobile